Time;durP1;ratioP1;P1;durP2;ratioP2;P2;SDS_P1;SDS_P2;PMS_P1;PMS_P2;Temp;Humidity;BMP_temperature;BMP_pressure;BME280_temperature;BME280_humidity;BME280_pressure;Samples;Min_cycle;Max_cycle;Signal;HPM_P1;HPM_P2
2022/08/27 00:01:09;;;;;;;10.80;5.90;;;;;;;20.74;nan;94672.97;5060582;28;20270;-65
2022/08/27 00:03:37;;;;;;;18.88;7.28;;;;;;;20.90;nan;94665.63;5059549;28;20197;-64
2022/08/27 00:06:04;;;;;;;8.23;6.55;;;;;;;20.82;nan;94670.59;5058614;28;20226;-65
2022/08/27 00:08:31;;;;;;;8.77;6.18;;;;;;;20.30;nan;94667.72;5059849;28;20876;-66
2022/08/27 00:10:59;;;;;;;13.13;5.88;;;;;;;20.09;nan;94656.50;5058909;28;20237;-65
2022/08/27 00:13:26;;;;;;;14.10;7.22;;;;;;;19.85;nan;94656.63;5058198;28;20301;-66
2022/08/27 00:15:53;;;;;;;10.75;6.72;;;;;;;19.91;nan;94657.94;5056446;28;20270;-66
2022/08/27 00:18:20;;;;;;;12.07;6.43;;;;;;;19.49;nan;94662.78;5056999;28;20237;-66
2022/08/27 00:20:47;;;;;;;13.82;7.43;;;;;;;19.08;nan;94663.25;5057417;28;20569;-66
2022/08/27 00:23:14;;;;;;;9.85;6.05;;;;;;;18.78;nan;94666.31;5058705;28;20642;-66
2022/08/27 00:25:40;;;;;;;17.02;7.00;;;;;;;19.10;nan;94663.13;5060326;28;20205;-66
2022/08/27 00:28:09;;;;;;;10.02;6.07;;;;;;;19.48;nan;94660.31;5060578;28;20199;-66
2022/08/27 00:30:35;;;;;;;11.02;7.20;;;;;;;19.69;nan;94658.75;5060232;28;20229;-66
2022/08/27 00:33:03;;;;;;;13.70;6.75;;;;;;;19.87;nan;94651.34;5058662;28;20693;-66
2022/08/27 00:35:30;;;;;;;11.50;7.28;;;;;;;20.05;nan;94649.94;5059553;28;20209;-67
2022/08/27 00:37:57;;;;;;;12.00;6.00;;;;;;;19.96;nan;94655.81;5058816;28;20207;-66
2022/08/27 00:40:24;;;;;;;11.50;5.72;;;;;;;19.84;nan;94651.59;5059301;28;20227;-66
2022/08/27 00:42:50;;;;;;;10.55;6.78;;;;;;;20.09;nan;94653.91;5057590;28;20236;-66
2022/08/27 00:45:22;;;;;;;11.25;7.95;;;;;;;20.47;nan;94658.72;5054880;28;20232;-68
2022/08/27 00:47:53;;;;;;;13.48;7.13;;;;;;;20.88;nan;94660.59;5059085;28;20217;-66
2022/08/27 00:50:28;;;;;;;9.18;7.10;;;;;;;21.10;nan;94659.66;5059327;28;20237;-66
2022/08/27 00:52:57;;;;;;;11.20;6.65;;;;;;;21.09;nan;94658.03;5059263;28;20740;-65
2022/08/27 00:55:27;;;;;;;7.90;5.22;;;;;;;21.13;nan;94661.19;5058212;28;20638;-67
2022/08/27 00:58:02;;;;;;;15.35;6.35;;;;;;;21.20;nan;94657.16;5060713;28;20749;-66
2022/08/27 01:00:30;;;;;;;18.08;6.70;;;;;;;21.35;nan;94661.09;5057129;28;20549;-66
2022/08/27 01:02:57;;;;;;;13.98;9.10;;;;;;;21.37;nan;94656.63;5058298;28;20683;-65
2022/08/27 01:05:26;;;;;;;17.33;11.07;;;;;;;21.39;nan;94654.75;5057562;28;20271;-65
2022/08/27 01:07:57;;;;;;;11.98;6.32;;;;;;;21.15;nan;94662.69;5059021;28;20290;-66
2022/08/27 01:10:28;;;;;;;12.00;6.38;;;;;;;20.85;nan;94666.00;5057039;28;20222;-66
2022/08/27 01:12:55;;;;;;;12.02;7.32;;;;;;;20.69;nan;94658.66;5056145;28;20210;-67
2022/08/27 01:15:25;;;;;;;10.73;6.13;;;;;;;20.68;nan;94663.94;5059494;28;20206;-66
2022/08/27 01:17:54;;;;;;;15.05;6.20;;;;;;;20.40;nan;94660.13;5059348;28;20206;-65
2022/08/27 01:20:25;;;;;;;11.13;6.85;;;;;;;20.16;nan;94660.25;5057969;28;20301;-66
2022/08/27 01:23:01;;;;;;;13.77;6.63;;;;;;;20.20;nan;94659.09;5060505;28;20672;-66
2022/08/27 01:25:30;;;;;;;12.00;7.10;;;;;;;20.41;nan;94658.38;5063424;28;20206;-66
2022/08/27 01:28:00;;;;;;;14.07;6.15;;;;;;;20.56;nan;94659.75;5061571;28;20210;-66
2022/08/27 01:30:27;;;;;;;15.48;7.43;;;;;;;20.83;nan;94657.53;5060339;28;20229;-65
2022/08/27 01:32:55;;;;;;;13.23;5.72;;;;;;;21.03;nan;94661.13;5059908;28;20256;-65
2022/08/27 01:35:23;;;;;;;15.15;9.30;;;;;;;21.02;nan;94652.56;5062795;28;20252;-67
2022/08/27 01:37:53;;;;;;;17.90;10.10;;;;;;;20.91;nan;94655.19;5061423;28;20210;-67
2022/08/27 01:40:20;;;;;;;30.20;14.52;;;;;;;21.05;nan;94656.63;5060654;28;20206;-67
2022/08/27 01:42:51;;;;;;;16.83;8.82;;;;;;;21.14;nan;94661.06;5062113;28;20206;-67
2022/08/27 01:45:20;;;;;;;16.80;10.38;;;;;;;21.20;nan;94657.16;5060617;28;20206;-67
2022/08/27 01:47:47;;;;;;;20.02;8.13;;;;;;;21.24;nan;94663.75;5063111;28;20272;-67
2022/08/27 01:50:19;;;;;;;14.50;7.38;;;;;;;21.19;nan;94669.25;5061270;28;20233;-66
2022/08/27 01:52:46;;;;;;;9.77;5.50;;;;;;;21.12;nan;94669.88;5060735;28;20699;-66
2022/08/27 01:55:17;;;;;;;15.52;6.45;;;;;;;21.00;nan;94676.88;5059115;28;20202;-67
2022/08/27 01:57:44;;;;;;;8.73;5.70;;;;;;;21.05;nan;94672.94;5061667;28;20296;-67
2022/08/27 02:00:16;;;;;;;13.98;5.85;;;;;;;21.02;nan;94668.06;5062030;28;20723;-66
2022/08/27 02:02:43;;;;;;;9.40;5.55;;;;;;;20.94;nan;94674.78;5060275;28;20278;-66
2022/08/27 02:05:10;;;;;;;12.68;5.85;;;;;;;20.88;nan;94676.09;5062987;28;20558;-65
2022/08/27 02:07:37;;;;;;;17.00;5.75;;;;;;;20.90;nan;94674.19;5060368;28;20647;-65
2022/08/27 02:10:06;;;;;;;12.05;5.22;;;;;;;20.74;nan;94673.78;5062487;28;20231;-66
2022/08/27 02:12:33;;;;;;;6.70;5.13;;;;;;;20.78;nan;94672.63;5062066;28;20830;-67
2022/08/27 02:15:01;;;;;;;8.15;4.97;;;;;;;20.74;nan;94673.78;5062313;28;20202;-66
2022/08/27 02:17:29;;;;;;;9.27;5.35;;;;;;;20.74;nan;94678.13;5062545;28;20270;-66
2022/08/27 02:19:56;;;;;;;10.55;5.32;;;;;;;20.68;nan;94684.59;5063405;28;20243;-66
2022/08/27 02:22:23;;;;;;;11.82;5.25;;;;;;;20.61;nan;94673.94;5062542;28;20287;-66
2022/08/27 02:24:50;;;;;;;12.13;4.90;;;;;;;20.75;nan;94680.59;5064958;28;20216;-66
2022/08/27 02:27:17;;;;;;;12.77;4.93;;;;;;;20.76;nan;94677.06;5061793;28;20230;-66
2022/08/27 02:29:46;;;;;;;15.25;5.40;;;;;;;20.67;nan;94677.78;5062057;28;20220;-65
2022/08/27 02:32:13;;;;;;;9.63;5.40;;;;;;;20.60;nan;94676.63;5056818;28;20735;-65
2022/08/27 02:34:41;;;;;;;11.95;4.90;;;;;;;20.66;nan;94671.81;5060833;28;20283;-65
2022/08/27 02:37:08;;;;;;;12.52;5.07;;;;;;;20.50;nan;94683.47;5059929;28;20837;-67
2022/08/27 02:39:34;;;;;;;11.63;4.75;;;;;;;20.50;nan;94686.06;5057818;28;20259;-66
2022/08/27 02:42:01;;;;;;;8.40;5.20;;;;;;;20.42;nan;94693.56;5062287;28;20641;-65
2022/08/27 02:44:28;;;;;;;11.98;5.60;;;;;;;20.42;nan;94696.97;5060868;28;20202;-66
2022/08/27 02:46:55;;;;;;;9.32;7.32;;;;;;;20.38;nan;94693.81;5061788;28;20687;-66
2022/08/27 02:49:21;;;;;;;22.23;10.55;;;;;;;20.41;nan;94695.34;5059023;28;20230;-65
2022/08/27 02:51:53;;;;;;;18.60;10.73;;;;;;;20.18;nan;94686.75;5059713;28;20254;-65
2022/08/27 02:54:20;;;;;;;14.32;8.25;;;;;;;19.84;nan;94690.25;5061893;28;20256;-65
2022/08/27 02:56:46;;;;;;;8.43;6.53;;;;;;;19.75;nan;94688.41;5056885;28;20210;-66
2022/08/27 02:59:13;;;;;;;8.98;6.22;;;;;;;19.85;nan;94691.91;5061394;28;20752;-65
2022/08/27 03:01:40;;;;;;;24.70;13.93;;;;;;;19.73;nan;94692.84;5060836;28;20267;-67
2022/08/27 03:04:07;;;;;;;16.73;9.68;;;;;;;19.60;nan;94690.34;5059628;28;20746;-65
2022/08/27 03:06:33;;;;;;;15.88;9.95;;;;;;;19.74;nan;94687.56;5059354;28;20290;-65
2022/08/27 03:09:02;;;;;;;17.85;10.82;;;;;;;19.85;nan;94697.06;5060761;28;20964;-65
2022/08/27 03:11:30;;;;;;;24.60;9.75;;;;;;;19.85;nan;94699.63;5060000;28;20699;-66
2022/08/27 03:13:57;;;;;;;20.20;10.43;;;;;;;18.97;nan;94694.94;5061059;28;20209;-66
2022/08/27 03:16:24;;;;;;;22.65;16.23;;;;;;;18.37;nan;94692.38;5060696;28;20201;-65
2022/08/27 03:18:51;;;;;;;21.27;11.77;;;;;;;18.13;nan;94694.88;5059602;28;20252;-66
2022/08/27 03:21:19;;;;;;;11.70;7.35;;;;;;;18.53;nan;94702.41;5060362;28;20198;-66
2022/08/27 03:23:47;;;;;;;15.15;8.88;;;;;;;18.93;nan;94698.69;5059368;28;20206;-67
2022/08/27 03:26:15;;;;;;;14.93;11.95;;;;;;;18.82;nan;94693.47;5058520;28;20244;-65
2022/08/27 03:28:42;;;;;;;25.85;14.18;;;;;;;18.50;nan;94707.78;5059412;28;20198;-65
2022/08/27 03:31:14;;;;;;;17.55;11.18;;;;;;;18.40;nan;94702.44;5061848;28;20221;-66
2022/08/27 03:33:42;;;;;;;8.95;7.75;;;;;;;18.22;nan;94709.69;5060205;28;20207;-66
2022/08/27 03:36:09;;;;;;;16.75;7.13;;;;;;;18.20;nan;94706.41;5061464;28;20195;-67
2022/08/27 03:38:36;;;;;;;9.90;5.93;;;;;;;18.06;nan;94718.56;5059980;28;20206;-66
2022/08/27 03:41:04;;;;;;;35.80;21.83;;;;;;;17.89;nan;94719.69;5061459;28;21237;-66
2022/08/27 03:43:33;;;;;;;55.58;34.47;;;;;;;17.79;nan;94716.13;5059968;28;20200;-65
2022/08/27 03:45:59;;;;;;;22.58;14.07;;;;;;;18.21;nan;94708.06;5061189;28;20214;-66
2022/08/27 03:48:28;;;;;;;14.10;7.80;;;;;;;17.96;nan;94714.03;5059831;28;20202;-65
2022/08/27 03:50:54;;;;;;;16.00;9.07;;;;;;;17.86;nan;94712.19;5061920;28;20249;-66
2022/08/27 03:53:21;;;;;;;27.00;17.60;;;;;;;18.07;nan;94715.03;5059285;28;20205;-66
2022/08/27 03:55:48;;;;;;;29.70;18.48;;;;;;;18.09;nan;94714.03;5059313;28;20303;-66
2022/08/27 03:58:16;;;;;;;29.00;20.90;;;;;;;18.13;nan;94720.59;5060405;28;20520;-66
2022/08/27 04:00:45;;;;;;;27.77;14.63;;;;;;;18.18;nan;94721.13;5058778;28;20675;-65
2022/08/27 04:03:14;;;;;;;28.60;10.85;;;;;;;18.21;nan;94720.91;5057683;28;20206;-66
2022/08/27 04:05:41;;;;;;;18.50;8.65;;;;;;;18.04;nan;94730.72;5059672;28;20253;-65
2022/08/27 04:08:08;;;;;;;11.38;7.30;;;;;;;18.12;nan;94733.56;5060423;28;20296;-66
2022/08/27 04:10:38;;;;;;;9.40;6.68;;;;;;;18.18;nan;94723.69;5059359;28;20665;-64
2022/08/27 04:13:05;;;;;;;10.18;7.13;;;;;;;18.09;nan;94732.03;5060753;28;20264;-64
2022/08/27 04:15:32;;;;;;;11.02;6.78;;;;;;;18.21;nan;94726.06;5059695;28;20210;-67
2022/08/27 04:18:00;;;;;;;13.27;6.57;;;;;;;18.21;nan;94726.06;5059239;28;20237;-66
2022/08/27 04:20:27;;;;;;;9.70;6.55;;;;;;;18.14;nan;94732.53;5060218;28;20240;-64
2022/08/27 04:22:54;;;;;;;11.35;7.40;;;;;;;18.38;nan;94735.16;5060835;28;20293;-65
2022/08/27 04:25:21;;;;;;;15.80;7.47;;;;;;;19.00;nan;94733.38;5062138;28;20202;-64
2022/08/27 04:27:47;;;;;;;12.50;6.07;;;;;;;19.52;nan;94744.25;5056817;28;20245;-64
2022/08/27 04:30:15;;;;;;;12.98;6.75;;;;;;;19.80;nan;94745.56;5061093;28;20234;-65
2022/08/27 04:32:42;;;;;;;11.82;6.35;;;;;;;20.09;nan;94743.38;5056441;28;20229;-65
2022/08/27 04:35:11;;;;;;;19.55;6.88;;;;;;;20.13;nan;94739.66;5061161;28;20205;-64
2022/08/27 04:37:39;;;;;;;14.32;6.75;;;;;;;20.33;nan;94746.69;5059949;28;20344;-66
2022/08/27 04:40:06;;;;;;;11.80;5.28;;;;;;;20.57;nan;94738.81;5060315;28;20226;-65
2022/08/27 04:42:33;;;;;;;17.55;7.05;;;;;;;20.77;nan;94740.69;5061151;28;20252;-66
2022/08/27 04:45:00;;;;;;;14.43;6.82;;;;;;;21.01;nan;94743.94;5058830;28;20198;-66
2022/08/27 04:47:26;;;;;;;19.38;6.03;;;;;;;21.20;nan;94742.44;5058324;28;20210;-65
2022/08/27 04:49:53;;;;;;;19.58;5.80;;;;;;;21.41;nan;94745.91;5061385;28;20226;-65
2022/08/27 04:52:21;;;;;;;11.50;6.25;;;;;;;21.46;nan;94746.38;5059111;28;20232;-66
2022/08/27 04:54:48;;;;;;;13.52;6.28;;;;;;;21.40;nan;94744.25;5060369;28;20764;-65
2022/08/27 04:57:15;;;;;;;10.45;5.65;;;;;;;21.52;nan;94747.63;5063715;28;20202;-66
2022/08/27 04:59:42;;;;;;;10.95;5.10;;;;;;;21.78;nan;94743.69;5064366;28;20594;-65
2022/08/27 05:02:09;;;;;;;11.15;5.28;;;;;;;22.01;nan;94754.78;5063195;28;20226;-65
2022/08/27 05:04:39;;;;;;;10.80;6.30;;;;;;;22.22;nan;94754.75;5064918;28;20218;-65
2022/08/27 05:07:06;;;;;;;14.40;4.90;;;;;;;22.49;nan;94755.00;5062110;28;20226;-65
2022/08/27 05:09:34;;;;;;;16.65;5.80;;;;;;;22.88;nan;94750.78;5062299;28;20213;-65
2022/08/27 05:12:01;;;;;;;13.43;6.63;;;;;;;23.62;nan;94750.31;5064290;28;20263;-66
2022/08/27 05:14:31;;;;;;;12.82;5.00;;;;;;;24.82;nan;94746.94;5063647;28;20205;-64
2022/08/27 05:16:58;;;;;;;5.35;4.82;;;;;;;26.03;nan;94754.28;5063743;28;20201;-65
2022/08/27 05:19:25;;;;;;;14.15;5.63;;;;;;;26.60;nan;94744.22;5063614;28;20205;-66
2022/08/27 05:21:53;;;;;;;14.13;5.68;;;;;;;26.94;nan;94750.22;5062537;28;20206;-65
2022/08/27 05:24:20;;;;;;;12.10;5.75;;;;;;;27.12;nan;94747.50;5064938;28;21847;-65
2022/08/27 05:26:48;;;;;;;12.50;5.78;;;;;;;27.65;nan;94744.50;5061717;28;21218;-65
2022/08/27 05:29:15;;;;;;;16.10;6.15;;;;;;;28.38;nan;94744.44;5062461;28;20300;-65
2022/08/27 05:31:42;;;;;;;12.40;6.13;;;;;;;28.61;nan;94751.56;5062111;28;20798;-65
2022/08/27 05:34:10;;;;;;;19.48;6.05;;;;;;;30.26;nan;94746.75;5062977;28;20709;-65
2022/08/27 05:36:39;;;;;;;11.88;5.82;;;;;;;31.99;nan;94743.38;5064380;28;20278;-65
2022/08/27 05:39:06;;;;;;;15.73;6.85;;;;;;;32.36;nan;94744.91;5062084;28;20206;-65
2022/08/27 05:41:34;;;;;;;9.13;5.38;;;;;;;32.32;nan;94744.47;5063484;28;20199;-66
2022/08/27 05:44:05;;;;;;;14.75;6.65;;;;;;;32.95;nan;94745.22;5064250;28;20299;-65
2022/08/27 05:46:32;;;;;;;10.80;7.05;;;;;;;33.50;nan;94738.13;5062407;28;20275;-65
2022/08/27 05:49:00;;;;;;;13.70;6.45;;;;;;;34.18;nan;94740.63;5062257;28;20214;-67
2022/08/27 05:51:30;;;;;;;15.98;6.65;;;;;;;33.95;nan;94741.84;5061969;28;20787;-66
2022/08/27 05:54:00;;;;;;;16.75;6.60;;;;;;;33.58;nan;94743.22;5064255;28;20255;-65
2022/08/27 05:56:28;;;;;;;13.48;6.25;;;;;;;33.99;nan;94745.72;5061465;28;20291;-66
2022/08/27 06:01:44;;;;;;;12.50;6.20;;;;;;;34.04;nan;94750.38;5064101;28;20574;-67
2022/08/27 06:04:12;;;;;;;16.85;6.40;;;;;;;35.17;nan;94745.69;5064500;28;20693;-66
2022/08/27 06:06:40;;;;;;;13.07;6.40;;;;;;;35.63;nan;94751.59;5062700;28;20249;-66
2022/08/27 06:09:09;;;;;;;18.52;6.57;;;;;;;35.67;nan;94742.19;5059785;28;21158;-67
2022/08/27 06:11:36;;;;;;;16.27;5.40;;;;;;;35.93;nan;94743.03;5062747;28;20660;-67
2022/08/27 06:14:03;;;;;;;13.10;6.65;;;;;;;36.19;nan;94744.66;5062384;28;20296;-66
2022/08/27 06:16:30;;;;;;;18.60;8.88;;;;;;;36.49;nan;94755.41;5063565;28;20792;-66
2022/08/27 06:18:58;;;;;;;19.20;8.73;;;;;;;36.74;nan;94753.56;5061454;28;20266;-67
2022/08/27 06:21:25;;;;;;;14.70;7.97;;;;;;;36.69;nan;94761.31;5062286;28;20679;-66
2022/08/27 06:23:53;;;;;;;11.60;8.65;;;;;;;36.98;nan;94759.81;5062178;28;20216;-66
2022/08/27 06:26:21;;;;;;;12.68;9.90;;;;;;;37.51;nan;94749.38;5060373;28;20745;-66
2022/08/27 06:28:48;;;;;;;16.80;9.38;;;;;;;37.82;nan;94750.19;5061940;28;20210;-66
2022/08/27 06:31:19;;;;;;;14.77;6.22;;;;;;;38.12;nan;94756.25;5063551;28;20229;-67
2022/08/27 06:33:47;;;;;;;11.85;6.00;;;;;;;37.66;nan;94763.03;5060852;28;20273;-67
2022/08/27 06:36:18;;;;;;;13.93;5.88;;;;;;;37.83;nan;94757.13;5061326;28;20263;-67
2022/08/27 06:38:45;;;;;;;10.10;5.53;;;;;;;37.21;nan;94757.31;5062600;28;20210;-67
2022/08/27 06:41:14;;;;;;;11.15;5.50;;;;;;;36.46;nan;94752.19;5061455;28;20197;-67
2022/08/27 06:43:42;;;;;;;10.45;5.40;;;;;;;36.68;nan;94757.03;5061867;28;20229;-67
2022/08/27 06:46:11;;;;;;;20.90;6.68;;;;;;;37.18;nan;94754.25;5062464;28;20272;-67
2022/08/27 06:48:39;;;;;;;12.98;5.20;;;;;;;37.56;nan;94752.16;5061157;28;20205;-67
2022/08/27 06:51:11;;;;;;;10.75;5.55;;;;;;;36.77;nan;94742.53;5059711;28;20288;-66
2022/08/27 06:53:39;;;;;;;10.23;5.88;;;;;;;36.49;nan;94748.28;5063761;28;20206;-67
2022/08/27 06:56:07;;;;;;;12.98;5.38;;;;;;;36.87;nan;94748.13;5061468;28;20271;-66
2022/08/27 06:58:34;;;;;;;9.90;5.03;;;;;;;37.52;nan;94745.69;5060690;28;20225;-66
2022/08/27 07:01:01;;;;;;;16.55;5.35;;;;;;;37.19;nan;94750.59;5062150;28;21769;-66
2022/08/27 07:03:28;;;;;;;13.82;5.32;;;;;;;37.13;nan;94749.63;5060229;28;20206;-65
2022/08/27 07:06:04;;;;;;;17.15;5.75;;;;;;;36.42;nan;94745.69;5062470;28;20656;-66
2022/08/27 07:08:32;;;;;;;13.68;5.57;;;;;;;35.47;nan;94741.50;5061205;28;20300;-65
2022/08/27 07:11:00;;;;;;;12.25;5.20;;;;;;;34.73;nan;94744.63;5059012;28;21978;-66
2022/08/27 07:13:27;;;;;;;12.80;5.35;;;;;;;36.09;nan;94742.53;5058946;28;20229;-66
2022/08/27 07:15:54;;;;;;;11.40;5.90;;;;;;;35.64;nan;94739.97;5061400;28;20198;-65
2022/08/27 07:18:21;;;;;;;21.10;5.72;;;;;;;35.30;nan;94746.47;5058865;28;20210;-65
2022/08/27 07:20:48;;;;;;;19.77;6.63;;;;;;;34.44;nan;94741.44;5060671;28;20210;-66
2022/08/27 07:23:15;;;;;;;16.65;5.72;;;;;;;33.93;nan;94741.22;5063153;28;20529;-65
2022/08/27 07:25:42;;;;;;;17.73;5.20;;;;;;;32.40;nan;94744.31;5059548;28;20267;-65
2022/08/27 07:28:10;;;;;;;14.85;4.93;;;;;;;32.42;nan;94752.81;5060473;28;20263;-65
2022/08/27 07:30:37;;;;;;;30.83;6.55;;;;;;;32.87;nan;94742.78;5062568;28;20287;-65
2022/08/27 07:33:04;;;;;;;15.63;5.55;;;;;;;32.47;nan;94755.69;5060335;28;20216;-65
2022/08/27 07:35:31;;;;;;;15.88;6.38;;;;;;;31.62;nan;94755.78;5059576;28;20211;-66
2022/08/27 07:37:58;;;;;;;12.65;6.25;;;;;;;31.77;nan;94756.53;5061793;28;20204;-66
2022/08/27 07:40:25;;;;;;;14.60;5.13;;;;;;;32.42;nan;94755.44;5059956;28;20246;-66
2022/08/27 07:45:44;;;;;;;14.20;4.47;;;;;;;33.64;nan;94755.59;5062091;28;20208;-64
2022/08/27 07:48:11;;;;;;;13.63;5.20;;;;;;;32.05;nan;94758.38;5059315;28;20209;-65
2022/08/27 07:50:38;;;;;;;14.93;5.22;;;;;;;31.13;nan;94765.34;5058239;28;20715;-65
2022/08/27 07:53:06;;;;;;;8.15;5.10;;;;;;;31.46;nan;94753.38;5061958;28;20207;-66
2022/08/27 07:55:35;;;;;;;11.50;5.90;;;;;;;31.37;nan;94759.75;5061557;28;20206;-65
2022/08/27 07:58:03;;;;;;;17.25;5.88;;;;;;;30.88;nan;94755.13;5060530;28;20219;-65
2022/08/27 08:00:30;;;;;;;10.38;4.68;;;;;;;30.67;nan;94755.06;5059010;28;20286;-65
2022/08/27 08:02:58;;;;;;;17.48;6.25;;;;;;;31.11;nan;94760.25;5058179;28;20696;-65
2022/08/27 08:05:25;;;;;;;11.45;4.93;;;;;;;31.35;nan;94753.88;5060155;28;20238;-65
2022/08/27 08:07:52;;;;;;;12.93;5.30;;;;;;;31.32;nan;94755.06;5061887;28;20210;-67
2022/08/27 08:10:20;;;;;;;9.85;5.85;;;;;;;31.04;nan;94744.41;5059771;28;20270;-65
2022/08/27 08:12:47;;;;;;;17.40;6.10;;;;;;;30.25;nan;94753.81;5061612;28;21681;-65
2022/08/27 08:15:16;;;;;;;13.68;5.28;;;;;;;29.86;nan;94748.75;5060061;28;21045;-66
2022/08/27 08:17:43;;;;;;;18.20;5.25;;;;;;;29.70;nan;94749.69;5060077;28;20612;-66
2022/08/27 08:20:12;;;;;;;10.88;5.20;;;;;;;29.59;nan;94742.25;5058890;28;20260;-66
2022/08/27 08:22:39;;;;;;;14.70;5.30;;;;;;;30.01;nan;94743.56;5057748;28;20234;-66
2022/08/27 08:25:07;;;;;;;18.45;5.13;;;;;;;30.39;nan;94745.16;5059558;28;20290;-65
2022/08/27 08:27:34;;;;;;;13.45;5.35;;;;;;;30.73;nan;94741.19;5057226;28;20952;-66
2022/08/27 08:30:01;;;;;;;18.65;6.00;;;;;;;30.66;nan;94733.25;5059753;28;20209;-66
2022/08/27 08:32:28;;;;;;;4.40;4.05;;;;;;;30.64;nan;94735.25;5059146;28;20263;-65
2022/08/27 08:34:55;;;;;;;19.70;5.07;;;;;;;30.43;nan;94740.38;5060428;28;20237;-66
2022/08/27 08:37:23;;;;;;;11.13;4.18;;;;;;;29.81;nan;94740.59;5060525;28;20202;-66
2022/08/27 08:39:50;;;;;;;13.25;4.85;;;;;;;29.93;nan;94739.19;5059537;28;20640;-66
2022/08/27 08:42:29;;;;;;;13.65;4.85;;;;;;;30.14;nan;94742.97;5059367;28;20254;-67
2022/08/27 08:44:58;;;;;;;11.50;4.53;;;;;;;30.05;nan;94743.03;5060626;28;20202;-66
2022/08/27 08:47:29;;;;;;;17.45;4.72;;;;;;;30.27;nan;94741.34;5061929;28;20256;-66
2022/08/27 08:50:03;;;;;;;10.18;4.32;;;;;;;30.32;nan;94733.75;5058637;28;20202;-66
2022/08/27 08:52:42;;;;;;;13.60;4.90;;;;;;;30.53;nan;94729.59;5059235;28;20230;-66
2022/08/27 08:55:22;;;;;;;15.57;4.82;;;;;;;30.80;nan;94734.22;5060074;28;20263;-67
2022/08/27 08:57:53;;;;;;;14.48;4.45;;;;;;;30.87;nan;94727.25;5059656;28;20757;-67
2022/08/27 09:00:20;;;;;;;7.68;4.18;;;;;;;30.81;nan;94732.41;5059754;28;20299;-67
2022/08/27 09:02:53;;;;;;;11.05;4.60;;;;;;;30.69;nan;94730.25;5057646;28;20207;-67
2022/08/27 09:05:22;;;;;;;10.65;5.18;;;;;;;30.96;nan;94733.19;5058986;28;20635;-67
2022/08/27 09:07:56;;;;;;;17.85;4.63;;;;;;;30.69;nan;94726.81;5057280;28;20206;-66
2022/08/27 09:10:32;;;;;;;18.60;5.22;;;;;;;30.71;nan;94728.25;5061973;28;20214;-66
2022/08/27 09:13:02;;;;;;;9.82;4.32;;;;;;;30.75;nan;94726.91;5058810;28;20263;-66
2022/08/27 09:15:31;;;;;;;10.00;4.32;;;;;;;30.97;nan;94722.50;5060950;28;20213;-66
2022/08/27 09:18:09;;;;;;;11.52;4.68;;;;;;;31.05;nan;94726.84;5059999;28;20202;-66
2022/08/27 09:20:37;;;;;;;10.70;4.35;;;;;;;31.16;nan;94725.59;5059852;28;20274;-67
2022/08/27 09:23:15;;;;;;;9.68;4.40;;;;;;;31.21;nan;94720.59;5060009;28;20260;-66
2022/08/27 09:25:43;;;;;;;11.98;4.40;;;;;;;30.51;nan;94721.09;5058770;28;20249;-66
2022/08/27 09:30:54;;;;;;;15.48;4.35;;;;;;;30.65;nan;94715.09;5060354;28;20217;-66
2022/08/27 09:33:22;;;;;;;12.98;4.68;;;;;;;30.89;nan;94719.22;5056795;28;20240;-66
2022/08/27 09:35:51;;;;;;;14.32;4.80;;;;;;;30.87;nan;94716.75;5060355;28;20202;-65
2022/08/27 09:38:30;;;;;;;10.13;4.28;;;;;;;30.99;nan;94717.91;5060025;28;20210;-66
2022/08/27 09:41:02;;;;;;;10.25;4.38;;;;;;;31.06;nan;94710.94;5058866;28;20205;-66
2022/08/27 09:43:30;;;;;;;14.55;5.85;;;;;;;31.00;nan;94708.22;5063778;28;20286;-67
2022/08/27 09:45:59;;;;;;;29.65;16.05;;;;;;;31.03;nan;94718.34;5064049;28;20293;-69
2022/08/27 09:48:28;;;;;;;20.75;14.45;;;;;;;30.96;nan;94699.91;5062545;28;20202;-67
2022/08/27 09:50:58;;;;;;;46.35;32.15;;;;;;;31.05;nan;94709.28;5061340;28;20888;-66
2022/08/27 09:53:29;;;;;;;20.60;12.02;;;;;;;30.99;nan;94703.97;5063219;28;20767;-66
2022/08/27 09:55:58;;;;;;;17.20;10.50;;;;;;;30.96;nan;94714.81;5061672;28;20253;-66
2022/08/27 09:58:28;;;;;;;13.20;4.95;;;;;;;30.92;nan;94708.34;5063353;28;20211;-66
2022/08/27 10:01:00;;;;;;;31.65;14.25;;;;;;;31.13;nan;94704.97;5060731;28;20287;-67
2022/08/27 10:03:28;;;;;;;9.55;3.22;;;;;;;31.25;nan;94706.09;5061099;28;20259;-66
2022/08/27 10:05:55;;;;;;;12.32;3.42;;;;;;;31.24;nan;94707.09;5062380;28;20218;-67
2022/08/27 10:08:28;;;;;;;17.42;12.52;;;;;;;31.18;nan;94702.59;5062887;28;20267;-71
2022/08/27 10:10:58;;;;;;;36.75;24.17;;;;;;;31.35;nan;94704.00;5063793;28;20635;-70
2022/08/27 10:13:31;;;;;;;32.45;20.13;;;;;;;31.29;nan;94699.47;5061604;28;20229;-70
2022/08/27 10:16:25;;;;;;;22.70;7.57;;;;;;;31.35;nan;94698.72;5064087;28;20280;-70
2022/08/27 10:18:59;;;;;;;10.43;4.25;;;;;;;31.29;nan;94700.28;5061738;28;20888;-70
2022/08/27 10:21:34;;;;;;;17.10;6.50;;;;;;;31.23;nan;94702.84;5056781;28;20206;-70
2022/08/27 10:24:16;;;;;;;6.88;5.20;;;;;;;31.18;nan;94692.91;5061557;28;20873;-70
2022/08/27 10:26:49;;;;;;;22.25;4.20;;;;;;;31.17;nan;94696.53;5059755;28;20734;-70
2022/08/27 10:29:24;;;;;;;10.48;4.60;;;;;;;31.13;nan;94691.84;5061545;28;20287;-70
2022/08/27 10:32:02;;;;;;;14.05;4.57;;;;;;;31.29;nan;94689.78;5061988;28;20603;-71
2022/08/27 10:34:39;;;;;;;20.08;4.30;;;;;;;31.40;nan;94685.84;5059165;28;20220;-70
2022/08/27 10:37:18;;;;;;;16.77;3.92;;;;;;;31.44;nan;94698.41;5061496;28;20713;-69
2022/08/27 10:39:59;;;;;;;16.00;4.18;;;;;;;31.53;nan;94701.72;5060875;28;20286;-70
2022/08/27 10:42:32;;;;;;;8.88;3.72;;;;;;;31.18;nan;94692.09;5062426;28;20247;-72
2022/08/27 10:45:23;;;;;;;16.58;4.05;;;;;;;31.19;nan;94693.69;5062427;28;20205;-70
2022/08/27 10:48:01;;;;;;;46.25;36.65;;;;;;;31.59;nan;94690.47;5061029;28;20263;-69
2022/08/27 10:50:33;;;;;;;15.10;10.13;;;;;;;31.83;nan;94691.09;5061607;28;20213;-70
2022/08/27 10:53:07;;;;;;;14.68;4.95;;;;;;;31.75;nan;94692.84;5062102;28;20909;-67
2022/08/27 10:55:40;;;;;;;13.60;4.35;;;;;;;31.17;nan;94695.72;5061585;28;20877;-68
2022/08/27 10:58:20;;;;;;;15.73;4.53;;;;;;;30.87;nan;94695.78;5061260;28;20201;-68
2022/08/27 11:01:03;;;;;;;14.07;4.28;;;;;;;30.97;nan;94691.03;5061984;28;20933;-67
2022/08/27 11:03:37;;;;;;;11.50;4.05;;;;;;;30.60;nan;94693.81;5058600;28;20747;-68
2022/08/27 11:06:10;;;;;;;17.50;4.80;;;;;;;30.78;nan;94696.88;5060639;28;20294;-68
2022/08/27 11:08:41;;;;;;;11.70;5.03;;;;;;;31.03;nan;94685.03;5060402;28;20198;-69
2022/08/27 11:11:13;;;;;;;11.18;5.00;;;;;;;31.29;nan;94683.72;5060802;28;20210;-69
2022/08/27 11:13:45;;;;;;;13.48;4.20;;;;;;;31.42;nan;94684.69;5060206;28;20234;-70
2022/08/27 11:16:16;;;;;;;10.02;4.97;;;;;;;31.51;nan;94687.16;5061051;28;20213;-71
2022/08/27 11:18:47;;;;;;;10.00;4.20;;;;;;;31.34;nan;94679.53;5059725;28;20689;-69
2022/08/27 11:21:19;;;;;;;18.73;4.65;;;;;;;31.43;nan;94680.19;5061453;28;20770;-71
2022/08/27 11:23:52;;;;;;;16.30;4.47;;;;;;;31.60;nan;94681.59;5059832;28;20198;-71
2022/08/27 11:26:21;;;;;;;17.65;8.55;;;;;;;31.73;nan;94676.47;5062554;28;20238;-68
2022/08/27 11:28:52;;;;;;;50.97;29.00;;;;;;;31.41;nan;94671.72;5061673;28;20298;-72
2022/08/27 11:31:27;;;;;;;24.60;16.05;;;;;;;31.37;nan;94673.09;5059596;28;20206;-69
2022/08/27 11:34:00;;;;;;;18.02;12.23;;;;;;;31.35;nan;94667.22;5061775;28;20257;-69
2022/08/27 11:37:10;;;;;;;14.95;7.45;;;;;;;31.50;nan;94660.06;5058897;28;20952;-70
2022/08/27 11:39:52;;;;;;;9.48;4.50;;;;;;;31.49;nan;94666.31;5062153;28;20252;-70
2022/08/27 11:42:34;;;;;;;9.43;4.82;;;;;;;31.18;nan;94660.59;5060891;28;20293;-70
2022/08/27 11:45:06;;;;;;;10.60;3.85;;;;;;;31.27;nan;94659.47;5059567;28;20210;-69
2022/08/27 11:47:33;;;;;;;14.80;4.45;;;;;;;30.96;nan;94655.28;5061754;28;20214;-70
2022/08/27 11:50:02;;;;;;;9.77;5.57;;;;;;;31.09;nan;94654.63;5060614;28;20202;-71
2022/08/27 11:52:32;;;;;;;15.20;8.70;;;;;;;31.36;nan;94653.91;5060633;28;20312;-70
2022/08/27 11:55:13;;;;;;;8.73;6.03;;;;;;;31.56;nan;94653.25;5059378;28;20258;-71
2022/08/27 11:57:42;;;;;;;11.10;6.07;;;;;;;31.63;nan;94654.13;5058585;28;20296;-70
2022/08/27 12:00:17;;;;;;;11.38;4.57;;;;;;;31.65;nan;94650.31;5061960;28;20205;-70